Time;durP1;ratioP1;P1;durP2;ratioP2;P2;SDS_P1;SDS_P2;PMS_P1;PMS_P2;Temp;Humidity;BMP_temperature;BMP_pressure;BME280_temperature;BME280_humidity;BME280_pressure;Samples;Min_cycle;Max_cycle;Signal;HPM_P1;HPM_P2
2021/08/04 00:01:28;;;;;;;;;24.33;23.33;;;;;;;;8748483;40;10673;-59
2021/08/04 00:07:30;;;;;;;;;34.33;30.67;;;;;;;;8750264;40;11493;-60
2021/08/04 00:13:32;;;;;;;;;24.33;22.00;;;;;;;;8748803;40;11091;-60
2021/08/04 00:19:34;;;;;;;;;25.67;25.67;;;;;;;;8748339;40;10371;-59
2021/08/04 00:25:37;;;;;;;;;29.67;26.00;;;;;;;;8748507;40;10479;-59
2021/08/04 00:31:39;;;;;;;;;27.00;27.00;;;;;;;;8749806;40;10114;-60
2021/08/04 00:37:41;;;;;;;;;33.67;31.33;;;;;;;;8747701;40;10092;-61
2021/08/04 00:43:43;;;;;;;;;28.00;25.25;;;;;;;;8748619;40;11890;-60
2021/08/04 00:49:46;;;;;;;;;26.67;26.00;;;;;;;;8747430;40;10721;-60
2021/08/04 00:55:50;;;;;;;;;27.67;25.33;;;;;;;;8749024;40;10836;-60
2021/08/04 01:01:58;;;;;;;;;35.67;33.67;;;;;;;;8748888;40;10083;-61
2021/08/04 01:08:06;;;;;;;;;38.67;36.00;;;;;;;;8746669;40;10363;-60
2021/08/04 01:14:14;;;;;;;;;28.25;24.75;;;;;;;;8748484;40;11897;-59
2021/08/04 01:20:21;;;;;;;;;30.00;29.00;;;;;;;;8747609;40;11133;-59
2021/08/04 01:26:29;;;;;;;;;28.67;27.33;;;;;;;;8749135;40;10124;-60
2021/08/04 01:32:32;;;;;;;;;30.67;30.67;;;;;;;;8747767;40;10197;-59
2021/08/04 01:38:36;;;;;;;;;28.33;28.33;;;;;;;;8748050;40;11110;-60
2021/08/04 01:44:39;;;;;;;;;29.33;28.33;;;;;;;;8747622;40;10106;-59
2021/08/04 01:50:43;;;;;;;;;32.67;28.00;;;;;;;;8746858;40;10098;-59
2021/08/04 01:56:45;;;;;;;;;30.33;30.33;;;;;;;;8747225;40;10291;-59
2021/08/04 02:02:47;;;;;;;;;33.33;32.67;;;;;;;;8745427;40;10140;-60
2021/08/04 02:09:01;;;;;;;;;31.67;31.67;;;;;;;;8746336;40;10898;-59
2021/08/04 02:15:06;;;;;;;;;31.00;29.67;;;;;;;;8747458;40;10373;-59
2021/08/04 02:21:09;;;;;;;;;37.33;33.33;;;;;;;;8745742;40;10279;-60
2021/08/04 02:27:12;;;;;;;;;29.00;27.00;;;;;;;;8745524;40;10363;-59
2021/08/04 02:33:15;;;;;;;;;28.33;28.33;;;;;;;;8746493;40;10110;-60
2021/08/04 02:39:17;;;;;;;;;33.67;32.33;;;;;;;;8747289;40;10102;-61
2021/08/04 02:45:20;;;;;;;;;27.67;25.00;;;;;;;;8747489;40;10264;-60
2021/08/04 02:51:24;;;;;;;;;30.67;29.67;;;;;;;;8744463;40;10627;-60
2021/08/04 02:57:26;;;;;;;;;40.00;34.33;;;;;;;;8747108;40;10326;-60
2021/08/04 03:03:28;;;;;;;;;37.67;34.33;;;;;;;;8745466;40;10291;-60
2021/08/04 03:09:30;;;;;;;;;38.00;34.33;;;;;;;;8745731;40;10313;-60
2021/08/04 03:15:33;;;;;;;;;34.00;31.67;;;;;;;;8746959;40;10080;-60
2021/08/04 03:21:35;;;;;;;;;32.00;30.00;;;;;;;;8744470;40;10482;-60
2021/08/04 03:27:38;;;;;;;;;33.33;31.33;;;;;;;;8746526;40;10081;-61
2021/08/04 03:33:40;;;;;;;;;34.33;33.00;;;;;;;;8745664;40;10305;-61
2021/08/04 03:39:42;;;;;;;;;39.33;34.67;;;;;;;;8750238;40;10659;-60
2021/08/04 03:45:44;;;;;;;;;30.67;29.00;;;;;;;;8749145;40;10125;-60
2021/08/04 03:51:46;;;;;;;;;29.33;28.33;;;;;;;;8750189;40;10218;-60
2021/08/04 03:57:48;;;;;;;;;26.75;23.00;;;;;;;;8749252;40;11697;-60
2021/08/04 04:03:50;;;;;;;;;29.00;26.67;;;;;;;;9783728;23;10607;-59
2021/08/04 04:09:52;;;;;;;;;32.33;32.00;;;;;;;;8744473;40;10223;-59
2021/08/04 04:15:54;;;;;;;;;34.00;32.00;;;;;;;;8753292;40;10025;-59
2021/08/04 04:21:57;;;;;;;;;32.33;32.33;;;;;;;;8753424;40;10096;-59
2021/08/04 04:27:59;;;;;;;;;35.67;34.00;;;;;;;;8751920;40;10589;-58
2021/08/04 04:34:01;;;;;;;;;35.00;31.00;;;;;;;;8751835;40;10597;-58
2021/08/04 04:40:04;;;;;;;;;30.00;30.00;;;;;;;;8752461;40;10644;-58
2021/08/04 04:46:06;;;;;;;;;31.67;29.33;;;;;;;;8752376;40;10548;-58
2021/08/04 04:52:08;;;;;;;;;40.00;33.50;;;;;;;;8752444;40;11045;-59
2021/08/04 04:58:10;;;;;;;;;35.00;31.00;;;;;;;;8752594;40;10691;-58
2021/08/04 05:04:12;;;;;;;;;33.00;30.25;;;;;;;;8752741;40;11257;-59
2021/08/04 05:10:14;;;;;;;;;32.50;30.50;;;;;;;;8750966;40;11656;-58
2021/08/04 05:16:16;;;;;;;;;30.00;27.75;;;;;;;;8753227;40;10895;-58
2021/08/04 05:22:19;;;;;;;;;41.75;33.50;;;;;;;;8750548;40;10994;-60
2021/08/04 05:28:21;;;;;;;;;33.50;32.50;;;;;;;;8751726;40;10800;-59
2021/08/04 05:34:23;;;;;;;;;34.75;31.75;;;;;;;;8749316;40;10925;-57
2021/08/04 05:40:25;;;;;;;;;30.00;29.25;;;;;;;;8750762;40;10763;-58
2021/08/04 05:46:28;;;;;;;;;32.75;30.75;;;;;;;;8751359;40;11856;-57
2021/08/04 05:52:31;;;;;;;;;31.00;30.75;;;;;;;;8749765;40;10954;-57
2021/08/04 05:58:33;;;;;;;;;38.00;32.75;;;;;;;;8757657;40;12348;-58
2021/08/04 06:04:36;;;;;;;;;36.75;34.00;;;;;;;;8773170;40;10886;-58
2021/08/04 06:10:38;;;;;;;;;38.50;33.75;;;;;;;;8769888;40;11562;-58
2021/08/04 06:16:40;;;;;;;;;36.00;32.75;;;;;;;;8747427;40;11845;-58
2021/08/04 06:22:44;;;;;;;;;35.25;32.00;;;;;;;;8748112;40;10888;-58
2021/08/04 06:28:50;;;;;;;;;35.75;31.75;;;;;;;;8748707;40;10627;-58
2021/08/04 06:34:52;;;;;;;;;35.50;33.75;;;;;;;;8747050;40;10996;-59
2021/08/04 06:40:55;;;;;;;;;22.00;20.00;;;;;;;;8748724;40;10732;-58
2021/08/04 06:46:58;;;;;;;;;36.00;33.25;;;;;;;;8745500;40;10978;-57
2021/08/04 06:53:00;;;;;;;;;36.00;33.00;;;;;;;;8744130;40;11345;-58
2021/08/04 06:59:02;;;;;;;;;31.75;31.00;;;;;;;;8744726;40;10917;-58
2021/08/04 07:05:05;;;;;;;;;39.25;33.75;;;;;;;;8735384;40;11043;-58
2021/08/04 07:11:07;;;;;;;;;38.25;33.75;;;;;;;;8734945;40;10985;-58
2021/08/04 07:17:10;;;;;;;;;38.50;33.75;;;;;;;;8747464;40;10973;-59
2021/08/04 07:23:12;;;;;;;;;36.00;34.00;;;;;;;;8744820;40;11680;-58
2021/08/04 07:29:14;;;;;;;;;38.25;32.50;;;;;;;;8741905;40;10711;-58
2021/08/04 07:35:18;;;;;;;;;39.00;38.00;;;;;;;;8745228;40;10606;-59
2021/08/04 07:41:20;;;;;;;;;33.75;33.00;;;;;;;;8746780;40;10624;-59
2021/08/04 07:47:22;;;;;;;;;32.25;31.75;;;;;;;;8745492;40;10873;-59
2021/08/04 07:53:25;;;;;;;;;43.00;38.75;;;;;;;;8747437;40;10559;-58
2021/08/04 07:59:27;;;;;;;;;46.00;38.00;;;;;;;;8747759;40;10476;-58
2021/08/04 08:05:30;;;;;;;;;41.00;34.25;;;;;;;;8741831;40;10668;-58
2021/08/04 08:11:32;;;;;;;;;41.25;38.50;;;;;;;;8746074;40;10720;-58
2021/08/04 08:17:34;;;;;;;;;42.00;37.25;;;;;;;;8746965;40;10664;-58
2021/08/04 08:23:36;;;;;;;;;43.50;39.00;;;;;;;;8745499;40;10624;-57
2021/08/04 08:29:39;;;;;;;;;44.00;38.25;;;;;;;;8746300;40;11150;-59
2021/08/04 08:35:41;;;;;;;;;39.75;35.75;;;;;;;;8747302;40;10712;-58
2021/08/04 08:41:45;;;;;;;;;37.75;33.25;;;;;;;;8745859;40;10780;-57
2021/08/04 08:47:48;;;;;;;;;35.50;35.00;;;;;;;;8745031;40;10606;-58
2021/08/04 08:53:52;;;;;;;;;34.25;33.25;;;;;;;;8739893;40;10645;-58
2021/08/04 08:59:58;;;;;;;;;33.50;33.00;;;;;;;;8740846;40;10552;-58
2021/08/04 09:06:02;;;;;;;;;29.50;26.50;;;;;;;;8744657;40;10675;-58
2021/08/04 09:12:10;;;;;;;;;29.00;28.00;;;;;;;;8739297;40;12060;-58
2021/08/04 09:18:16;;;;;;;;;34.00;32.25;;;;;;;;8741692;40;10769;-59
2021/08/04 09:24:18;;;;;;;;;34.50;31.50;;;;;;;;8744714;40;10632;-58
2021/08/04 09:30:41;;;;;;;;;33.75;32.00;;;;;;;;8743390;40;11638;-58
2021/08/04 09:36:57;;;;;;;;;34.00;31.25;;;;;;;;8744079;40;10863;-58
2021/08/04 09:42:59;;;;;;;;;34.50;31.50;;;;;;;;8737628;40;10757;-59
2021/08/04 09:49:15;;;;;;;;;31.00;30.25;;;;;;;;8743210;40;11131;-57
2021/08/04 09:55:18;;;;;;;;;35.75;33.75;;;;;;;;8737630;40;11376;-58
2021/08/04 10:01:22;;;;;;;;;36.25;29.25;;;;;;;;8744406;40;10552;-57
2021/08/04 10:07:25;;;;;;;;;33.75;31.00;;;;;;;;8746358;40;10617;-59
2021/08/04 10:13:31;;;;;;;;;35.50;32.50;;;;;;;;8740423;40;10749;-58
2021/08/04 10:19:35;;;;;;;;;39.25;34.25;;;;;;;;8004935;40;10000998;-58
2021/08/04 10:25:37;;;;;;;;;38.00;35.25;;;;;;;;8744206;40;10835;-58
2021/08/04 10:31:40;;;;;;;;;37.50;34.25;;;;;;;;8745432;40;10502;-58
2021/08/04 10:37:54;;;;;;;;;28.25;27.75;;;;;;;;8743355;40;10805;-58
2021/08/04 10:43:58;;;;;;;;;33.00;28.50;;;;;;;;8743607;40;10818;-57
2021/08/04 10:50:11;;;;;;;;;25.50;24.50;;;;;;;;8746287;40;10685;-57
2021/08/04 10:56:16;;;;;;;;;21.00;21.00;;;;;;;;8738788;40;10589;-58
2021/08/04 11:02:20;;;;;;;;;26.75;25.50;;;;;;;;8745844;40;10542;-58
2021/08/04 11:08:23;;;;;;;;;28.75;25.75;;;;;;;;8744645;40;11016;-57
2021/08/04 11:14:55;;;;;;;;;26.25;25.50;;;;;;;;8743756;40;10508;-58
2021/08/04 11:21:20;;;;;;;;;26.50;23.75;;;;;;;;8746955;40;10813;-58
2021/08/04 11:27:27;;;;;;;;;24.25;23.25;;;;;;;;8741790;40;10739;-59
2021/08/04 11:33:31;;;;;;;;;22.50;22.00;;;;;;;;8749199;40;10543;-58
2021/08/04 11:39:33;;;;;;;;;22.75;22.75;;;;;;;;8748579;40;10544;-57
2021/08/04 11:45:42;;;;;;;;;23.50;23.25;;;;;;;;8749397;40;10668;-57
2021/08/04 11:51:47;;;;;;;;;20.50;19.50;;;;;;;;8748792;40;10733;-57
2021/08/04 11:57:56;;;;;;;;;25.50;21.25;;;;;;;;8752386;40;10540;-58
2021/08/04 12:04:03;;;;;;;;;24.50;20.50;;;;;;;;8745220;40;11250;-58
2021/08/04 12:10:14;;;;;;;;;22.00;22.00;;;;;;;;8738225;40;10737;-58
2021/08/04 12:16:16;;;;;;;;;20.50;20.50;;;;;;;;8749888;40;10578;-58
2021/08/04 12:22:25;;;;;;;;;24.00;23.25;;;;;;;;8767347;40;10647;-57
2021/08/04 12:28:31;;;;;;;;;21.50;21.50;;;;;;;;8766917;40;10438;-58
2021/08/04 12:34:46;;;;;;;;;19.75;19.75;;;;;;;;8751485;40;11237;-59
2021/08/04 12:40:52;;;;;;;;;25.75;24.00;;;;;;;;8751512;40;10703;-57
2021/08/04 12:46:54;;;;;;;;;23.00;22.00;;;;;;;;8759433;40;10558;-57
2021/08/04 12:53:06;;;;;;;;;22.50;22.50;;;;;;;;8774043;40;10578;-58
2021/08/04 12:59:12;;;;;;;;;16.00;16.00;;;;;;;;8776531;40;10495;-57
2021/08/04 13:05:14;;;;;;;;;29.25;27.75;;;;;;;;8775527;40;10541;-58
2021/08/04 13:11:26;;;;;;;;;28.75;27.00;;;;;;;;8770552;40;10523;-59
2021/08/04 13:17:37;;;;;;;;;26.00;26.00;;;;;;;;8752203;40;10561;-58
2021/08/04 13:23:40;;;;;;;;;27.25;24.75;;;;;;;;8750947;40;10519;-57
2021/08/04 13:29:42;;;;;;;;;17.75;17.75;;;;;;;;8752053;40;10783;-59
2021/08/04 13:35:47;;;;;;;;;28.00;25.25;;;;;;;;8750150;40;10915;-58
2021/08/04 13:41:49;;;;;;;;;28.25;26.25;;;;;;;;8750234;40;10696;-59
2021/08/04 13:47:53;;;;;;;;;24.25;24.25;;;;;;;;8749656;40;10747;-59
2021/08/04 13:53:55;;;;;;;;;29.25;28.50;;;;;;;;8746760;40;10538;-59
2021/08/04 13:59:57;;;;;;;;;29.50;27.00;;;;;;;;8749694;40;10698;-59
2021/08/04 14:06:00;;;;;;;;;26.50;26.25;;;;;;;;8746505;40;11340;-59
2021/08/04 14:12:02;;;;;;;;;27.00;26.75;;;;;;;;8747632;40;10591;-59
2021/08/04 14:18:08;;;;;;;;;25.50;24.00;;;;;;;;8747540;40;10701;-59
2021/08/04 14:24:10;;;;;;;;;28.75;26.75;;;;;;;;8748109;40;10766;-59
2021/08/04 14:30:14;;;;;;;;;29.00;25.25;;;;;;;;8747178;40;10559;-59
2021/08/04 14:36:16;;;;;;;;;25.25;23.75;;;;;;;;8747122;40;10560;-59
2021/08/04 14:42:18;;;;;;;;;26.75;22.75;;;;;;;;8747498;40;10717;-59
2021/08/04 14:48:27;;;;;;;;;27.00;26.75;;;;;;;;8747009;40;10565;-59
2021/08/04 14:54:29;;;;;;;;;29.75;27.00;;;;;;;;8746796;40;10554;-60
2021/08/04 15:00:31;;;;;;;;;26.25;25.00;;;;;;;;8746161;40;10775;-60
2021/08/04 15:06:37;;;;;;;;;26.00;24.50;;;;;;;;8747480;40;10540;-59
2021/08/04 15:12:40;;;;;;;;;27.25;27.25;;;;;;;;8746461;40;11085;-59
2021/08/04 15:18:43;;;;;;;;;30.00;25.00;;;;;;;;8745348;40;10845;-60
2021/08/04 15:24:45;;;;;;;;;25.25;23.25;;;;;;;;8746326;40;10767;-59
2021/08/04 15:30:47;;;;;;;;;26.50;26.50;;;;;;;;8748381;40;10501;-60
2021/08/04 15:36:50;;;;;;;;;27.75;26.25;;;;;;;;8750694;40;10534;-59
2021/08/04 15:42:52;;;;;;;;;27.75;23.75;;;;;;;;8749827;40;10601;-59
2021/08/04 15:48:55;;;;;;;;;23.00;22.25;;;;;;;;8748362;40;11392;-58
2021/08/04 15:54:57;;;;;;;;;20.75;20.75;;;;;;;;8749078;40;10644;-60
2021/08/04 16:00:59;;;;;;;;;26.50;24.75;;;;;;;;8749051;40;10781;-58
2021/08/04 16:07:01;;;;;;;;;21.00;19.50;;;;;;;;8749872;40;11626;-59
2021/08/04 16:13:03;;;;;;;;;25.75;24.75;;;;;;;;8749607;40;10542;-59
2021/08/04 16:19:10;;;;;;;;;23.25;23.25;;;;;;;;8749908;40;10728;-57
2021/08/04 16:25:13;;;;;;;;;24.25;22.25;;;;;;;;8748580;40;10814;-60
2021/08/04 16:31:17;;;;;;;;;30.75;27.75;;;;;;;;8749547;40;10527;-59
2021/08/04 16:37:20;;;;;;;;;22.75;22.50;;;;;;;;8749503;40;10566;-59
2021/08/04 16:43:22;;;;;;;;;36.50;35.00;;;;;;;;8748223;40;10784;-58
2021/08/04 16:49:24;;;;;;;;;20.75;19.75;;;;;;;;8748171;40;10751;-58
2021/08/04 16:55:26;;;;;;;;;20.00;20.00;;;;;;;;8748210;40;11502;-58
2021/08/04 17:01:28;;;;;;;;;20.50;20.00;;;;;;;;8747559;40;10564;-60
2021/08/04 17:07:31;;;;;;;;;30.25;21.00;;;;;;;;8749253;40;10554;-59
2021/08/04 17:13:33;;;;;;;;;26.00;23.00;;;;;;;;8748196;40;10764;-59
2021/08/04 17:19:36;;;;;;;;;25.50;23.25;;;;;;;;8748787;40;10561;-59
2021/08/04 17:25:38;;;;;;;;;26.75;24.50;;;;;;;;8747827;40;10748;-59
2021/08/04 17:31:40;;;;;;;;;27.50;26.50;;;;;;;;8747004;40;10536;-60
2021/08/04 17:37:43;;;;;;;;;19.50;18.75;;;;;;;;8748338;40;10620;-59
2021/08/04 17:43:49;;;;;;;;;25.75;23.50;;;;;;;;8749079;40;10574;-58
2021/08/04 17:49:53;;;;;;;;;21.00;21.00;;;;;;;;8747773;40;10552;-58
2021/08/04 17:55:56;;;;;;;;;24.75;23.75;;;;;;;;8747709;40;11096;-59
2021/08/04 18:01:58;;;;;;;;;31.25;25.25;;;;;;;;8748273;40;10749;-59
2021/08/04 18:08:00;;;;;;;;;27.50;25.75;;;;;;;;8747506;40;10444;-59
2021/08/04 18:14:02;;;;;;;;;39.50;35.00;;;;;;;;8747576;40;10620;-59
2021/08/04 18:20:05;;;;;;;;;40.75;37.50;;;;;;;;8748340;40;10799;-58
2021/08/04 18:26:07;;;;;;;;;25.75;25.50;;;;;;;;8747252;40;10783;-59
2021/08/04 18:32:09;;;;;;;;;34.75;31.75;;;;;;;;8747232;40;10537;-59
2021/08/04 18:38:11;;;;;;;;;27.00;25.75;;;;;;;;8747038;40;11025;-59
2021/08/04 18:44:17;;;;;;;;;24.00;22.50;;;;;;;;8746886;40;10534;-58
2021/08/04 18:50:20;;;;;;;;;33.25;30.25;;;;;;;;8747048;40;10589;-58
2021/08/04 18:56:26;;;;;;;;;33.25;30.75;;;;;;;;8747077;40;10764;-58
2021/08/04 19:02:28;;;;;;;;;24.00;23.25;;;;;;;;8746910;40;10557;-58
2021/08/04 19:08:31;;;;;;;;;32.75;29.00;;;;;;;;8750302;40;10611;-60
2021/08/04 19:14:33;;;;;;;;;27.00;23.00;;;;;;;;8751250;40;10700;-58
2021/08/04 19:20:36;;;;;;;;;28.75;26.50;;;;;;;;8749959;40;10782;-59
2021/08/04 19:26:39;;;;;;;;;29.00;25.75;;;;;;;;8749948;40;11839;-60
2021/08/04 19:32:43;;;;;;;;;28.75;28.75;;;;;;;;8748870;40;10576;-58
2021/08/04 19:38:46;;;;;;;;;26.50;25.25;;;;;;;;8750040;40;10497;-57
2021/08/04 19:44:48;;;;;;;;;24.50;24.00;;;;;;;;8750345;40;10788;-59
2021/08/04 19:50:50;;;;;;;;;29.75;26.50;;;;;;;;8751139;40;10563;-59
2021/08/04 19:56:52;;;;;;;;;26.75;23.25;;;;;;;;8749916;40;10589;-59
2021/08/04 20:02:54;;;;;;;;;29.50;25.50;;;;;;;;8749745;40;11364;-59
2021/08/04 20:08:56;;;;;;;;;34.00;30.00;;;;;;;;8749834;40;10682;-59
2021/08/04 20:14:59;;;;;;;;;35.00;31.25;;;;;;;;8750141;40;10601;-59
2021/08/04 20:21:07;;;;;;;;;30.50;30.25;;;;;;;;8749624;40;10550;-59
2021/08/04 20:27:10;;;;;;;;;29.75;29.25;;;;;;;;8749727;40;10527;-58
2021/08/04 20:33:12;;;;;;;;;32.75;31.25;;;;;;;;8749578;40;11306;-58
2021/08/04 20:39:15;;;;;;;;;34.00;32.00;;;;;;;;8749128;40;10886;-59
2021/08/04 20:45:17;;;;;;;;;39.25;36.25;;;;;;;;8749464;40;10713;-58
2021/08/04 20:51:20;;;;;;;;;33.75;31.75;;;;;;;;8748767;40;10987;-58
2021/08/04 20:57:23;;;;;;;;;36.75;35.00;;;;;;;;8749287;40;10900;-58
2021/08/04 21:03:25;;;;;;;;;35.75;35.00;;;;;;;;8749237;40;10803;-59
2021/08/04 21:09:27;;;;;;;;;35.25;32.00;;;;;;;;8748945;40;11102;-58
2021/08/04 21:15:31;;;;;;;;;32.75;31.75;;;;;;;;8748902;40;10884;-59
2021/08/04 21:21:33;;;;;;;;;30.50;30.00;;;;;;;;8748930;40;10798;-58
2021/08/04 21:27:36;;;;;;;;;34.75;30.75;;;;;;;;8748594;40;10706;-59
2021/08/04 21:33:39;;;;;;;;;32.75;31.25;;;;;;;;8748271;40;11082;-59
2021/08/04 21:39:41;;;;;;;;;33.00;30.25;;;;;;;;8748443;40;10983;-59
2021/08/04 21:45:44;;;;;;;;;32.75;30.75;;;;;;;;8748614;40;10756;-58
2021/08/04 21:51:46;;;;;;;;;34.25;32.00;;;;;;;;8748152;40;11124;-59
2021/08/04 21:57:51;;;;;;;;;35.00;33.50;;;;;;;;8748156;40;10904;-58
2021/08/04 22:03:53;;;;;;;;;33.50;28.75;;;;;;;;8747054;40;10817;-58
2021/08/04 22:09:55;;;;;;;;;34.50;30.00;;;;;;;;8748866;40;11074;-59
2021/08/04 22:15:57;;;;;;;;;31.25;30.00;;;;;;;;8748082;40;11176;-58
2021/08/04 22:21:59;;;;;;;;;33.50;32.25;;;;;;;;8747702;40;10837;-59
2021/08/04 22:28:02;;;;;;;;;33.50;32.00;;;;;;;;8749022;40;10786;-59
2021/08/04 22:34:04;;;;;;;;;33.50;30.75;;;;;;;;8747481;40;11050;-58
2021/08/04 22:40:07;;;;;;;;;30.25;28.75;;;;;;;;8747542;40;11064;-58
2021/08/04 22:46:11;;;;;;;;;38.00;32.25;;;;;;;;8747402;40;11281;-59
2021/08/04 22:52:13;;;;;;;;;33.75;31.50;;;;;;;;8747167;40;10966;-57
2021/08/04 22:58:17;;;;;;;;;31.25;28.50;;;;;;;;8747635;40;10741;-58
2021/08/04 23:04:19;;;;;;;;;28.50;26.75;;;;;;;;8746778;40;11185;-58
2021/08/04 23:10:21;;;;;;;;;33.50;31.50;;;;;;;;8746950;40;11922;-59
2021/08/04 23:16:23;;;;;;;;;35.50;31.00;;;;;;;;8747121;40;10939;-59
2021/08/04 23:22:25;;;;;;;;;34.50;32.50;;;;;;;;8747061;40;10916;-59
2021/08/04 23:28:27;;;;;;;;;34.00;31.25;;;;;;;;8746401;40;11227;-58
2021/08/04 23:34:29;;;;;;;;;32.00;30.33;;;;;;;;8746511;40;10564;-58
2021/08/04 23:40:31;;;;;;;;;46.67;41.67;;;;;;;;8746858;40;10124;-58
2021/08/04 23:46:33;;;;;;;;;40.25;36.25;;;;;;;;8745494;40;11310;-58
2021/08/04 23:52:36;;;;;;;;;37.33;34.67;;;;;;;;8749226;40;11529;-60
2021/08/04 23:58:38;;;;;;;;;32.67;32.00;;;;;;;;8750594;40;10918;-58
